createdAt,value
2022-10-31T00:00:51.366Z,41
2022-10-31T00:02:51.358Z,39
2022-10-31T00:04:51.469Z,39
2022-10-31T00:06:51.564Z,38
2022-10-31T00:08:51.679Z,37
2022-10-31T00:10:51.776Z,36
2022-10-31T00:12:51.883Z,37
2022-10-31T00:14:51.987Z,34
2022-10-31T00:16:52.105Z,33
2022-10-31T00:18:52.220Z,33
2022-10-31T00:20:52.376Z,40
2022-10-31T00:22:52.427Z,38
2022-10-31T00:24:52.537Z,37
2022-10-31T00:26:52.647Z,35
2022-10-31T00:28:52.759Z,37
2022-10-31T00:30:52.864Z,36
2022-10-31T00:32:52.997Z,36
2022-10-31T00:34:53.077Z,36
2022-10-31T00:36:53.205Z,39
2022-10-31T00:38:53.307Z,36
2022-10-31T00:40:53.388Z,36
2022-10-31T00:42:53.594Z,39
2022-10-31T00:44:53.607Z,38
2022-10-31T00:46:53.714Z,41
2022-10-31T00:48:53.844Z,38
2022-10-31T00:50:53.908Z,43
2022-10-31T00:52:53.993Z,41
2022-10-31T00:54:54.106Z,36
2022-10-31T00:56:54.213Z,30
2022-10-31T01:00:54.456Z,28
2022-10-31T01:02:54.515Z,29
2022-10-31T01:04:54.602Z,26
2022-10-31T01:06:54.723Z,26
2022-10-31T01:08:54.831Z,24
2022-10-31T01:10:54.906Z,28
2022-10-31T01:12:55.011Z,31
2022-10-31T01:14:55.117Z,29
2022-10-31T01:16:55.234Z,32
2022-10-31T01:18:55.325Z,35
2022-10-31T05:59:21.715Z,26
2022-10-31T06:01:21.369Z,28
2022-10-31T06:03:21.339Z,25
2022-10-31T06:07:21.508Z,24
2022-10-31T06:09:21.608Z,23
2022-10-31T06:11:21.695Z,26
2022-10-31T06:13:21.810Z,25
2022-10-31T06:15:24.380Z,24
2022-10-31T06:17:21.951Z,29
2022-10-31T06:19:22.026Z,30
2022-10-31T06:21:22.124Z,31
2022-10-31T06:23:22.238Z,36
2022-10-31T06:25:22.296Z,39
2022-10-31T06:29:22.446Z,36
2022-10-31T06:31:22.592Z,35
2022-10-31T06:33:52.675Z,37
2022-10-31T06:35:53.033Z,37
2022-10-31T06:37:53.003Z,35
2022-10-31T06:39:53.128Z,36
2022-10-31T06:41:53.237Z,34
2022-10-31T06:43:53.364Z,33
2022-10-31T06:45:53.468Z,35
2022-10-31T06:49:53.695Z,36
2022-10-31T06:51:53.842Z,34
2022-10-31T06:53:53.940Z,33
2022-10-31T06:55:54.090Z,32
2022-10-31T06:57:57.590Z,33
2022-10-31T06:59:54.291Z,30
2022-10-31T07:01:54.478Z,32
2022-10-31T07:03:54.524Z,28
2022-10-31T07:05:54.625Z,30
2022-10-31T07:07:54.740Z,28
2022-10-31T07:09:54.863Z,27
2022-10-31T07:11:54.979Z,28
2022-10-31T07:13:55.140Z,29
2022-10-31T07:15:55.208Z,28
2022-10-31T07:17:55.347Z,31
2022-10-31T07:19:55.433Z,28
2022-10-31T07:21:55.560Z,29
2022-10-31T07:23:55.670Z,34
2022-10-31T07:25:55.780Z,31
2022-10-31T07:27:55.894Z,36
2022-10-31T07:29:56.077Z,30
2022-10-31T07:31:56.121Z,34
2022-10-31T07:33:56.242Z,31
2022-10-31T07:35:56.365Z,33
2022-10-31T07:37:56.527Z,35
2022-10-31T07:39:56.588Z,33
2022-10-31T07:41:56.691Z,34
2022-10-31T07:43:56.862Z,35
2022-10-31T07:45:56.923Z,34
2022-10-31T07:47:57.261Z,35
2022-10-31T07:49:57.152Z,33
2022-10-31T07:51:57.253Z,35
2022-10-31T07:53:57.378Z,37
2022-10-31T07:55:57.483Z,41
2022-10-31T07:57:57.821Z,41
2022-10-31T07:59:57.712Z,41
2022-10-31T08:01:57.824Z,39
2022-10-31T08:03:57.930Z,38
2022-10-31T08:05:58.037Z,41
2022-10-31T08:07:58.354Z,42
2022-10-31T08:09:58.274Z,39
2022-10-31T08:11:58.357Z,38
2022-10-31T08:13:58.478Z,36
2022-10-31T08:15:58.597Z,41
2022-10-31T08:17:59.116Z,42
2022-10-31T08:19:58.785Z,40
2022-10-31T08:21:58.887Z,35
2022-10-31T08:25:59.107Z,38
2022-10-31T08:27:59.519Z,36
2022-10-31T08:29:59.333Z,36
2022-10-31T08:31:59.420Z,34
2022-10-31T08:33:59.591Z,33
2022-10-31T08:35:59.639Z,34
2022-10-31T08:38:00.079Z,35
2022-10-31T08:39:59.856Z,32
2022-10-31T08:41:59.945Z,34
2022-10-31T08:44:00.061Z,37
2022-10-31T08:46:00.173Z,36
2022-10-31T08:48:00.541Z,35
2022-10-31T08:50:00.356Z,35
2022-10-31T08:52:00.443Z,39
2022-10-31T08:54:00.540Z,35
2022-10-31T08:56:00.648Z,33
2022-10-31T08:58:01.081Z,35
2022-10-31T09:00:00.853Z,32
2022-10-31T09:02:01.123Z,31
2022-10-31T09:04:01.070Z,35
2022-10-31T09:06:01.420Z,33
2022-10-31T09:08:01.777Z,34
2022-10-31T09:10:01.371Z,31
2022-10-31T09:12:01.462Z,32
2022-10-31T09:14:01.589Z,32
2022-10-31T09:16:01.677Z,29
2022-10-31T09:18:02.200Z,27
2022-10-31T09:20:01.871Z,28
2022-10-31T09:22:01.998Z,28
2022-10-31T09:24:02.024Z,28
2022-10-31T09:26:02.097Z,29
2022-10-31T09:28:02.663Z,28
2022-10-31T09:30:02.284Z,27
2022-10-31T09:32:02.387Z,27
2022-10-31T09:34:02.495Z,28
2022-10-31T09:36:02.579Z,28
2022-10-31T09:38:02.909Z,27
2022-10-31T09:40:02.765Z,26
2022-10-31T09:42:02.925Z,28
2022-10-31T09:44:02.945Z,28
2022-10-31T09:46:03.029Z,26
2022-10-31T09:48:03.539Z,34
2022-10-31T09:50:03.212Z,31
2022-10-31T09:52:03.341Z,30
2022-10-31T09:54:03.385Z,33
2022-10-31T09:56:03.483Z,32
2022-10-31T09:58:03.587Z,33
2022-10-31T10:00:03.667Z,31
2022-10-31T10:02:03.803Z,29
2022-10-31T10:04:03.805Z,30
2022-10-31T10:06:03.925Z,31
2022-10-31T10:08:03.990Z,28
2022-10-31T10:10:04.076Z,31
2022-10-31T10:12:04.149Z,30
2022-10-31T10:14:04.237Z,27
2022-10-31T10:16:04.322Z,26
2022-10-31T10:18:04.398Z,27
2022-10-31T10:20:04.533Z,25
2022-10-31T10:22:04.576Z,27
2022-10-31T10:24:34.705Z,24
2022-10-31T10:26:34.820Z,25
2022-10-31T10:30:35.048Z,22
2022-10-31T10:32:35.168Z,24
2022-10-31T10:34:35.234Z,25
2022-10-31T10:36:35.345Z,21
2022-10-31T10:38:35.468Z,23
2022-10-31T10:40:35.749Z,24
2022-10-31T10:42:35.679Z,24
2022-10-31T10:44:35.796Z,23
2022-10-31T10:46:35.902Z,24
2022-10-31T10:48:36.015Z,19
2022-10-31T10:50:36.127Z,23
2022-10-31T10:52:46.015Z,18
2022-10-31T10:54:36.343Z,16
2022-10-31T10:56:36.440Z,16
2022-10-31T10:58:36.580Z,19
2022-10-31T11:00:36.786Z,15
2022-10-31T11:02:36.761Z,13
2022-10-31T11:04:36.887Z,12
2022-10-31T11:06:36.959Z,14
2022-10-31T11:08:37.067Z,14
2022-10-31T11:10:37.169Z,16
2022-10-31T11:12:37.283Z,14
2022-10-31T11:14:37.352Z,14
2022-10-31T11:16:41.017Z,14
2022-10-31T11:18:37.544Z,13
2022-10-31T11:20:37.655Z,14
2022-10-31T11:22:37.744Z,15
2022-10-31T11:24:37.852Z,15
2022-10-31T11:26:37.960Z,15
2022-10-31T11:28:38.082Z,13
2022-10-31T11:30:38.163Z,13
2022-10-31T11:32:38.256Z,13
2022-10-31T11:34:38.356Z,14
2022-10-31T11:36:38.443Z,12
2022-10-31T11:38:38.538Z,13
2022-10-31T11:42:38.724Z,14
2022-10-31T11:44:38.838Z,13
2022-10-31T11:46:38.936Z,11
2022-10-31T11:48:39.030Z,13
2022-10-31T11:52:39.231Z,12
2022-10-31T11:54:39.334Z,11
2022-10-31T11:56:39.416Z,11
2022-10-31T11:58:39.519Z,13
2022-10-31T12:00:39.624Z,12
2022-10-31T12:02:39.740Z,13
2022-10-31T12:04:39.808Z,11
2022-10-31T12:06:39.888Z,12
2022-10-31T12:08:39.977Z,12
2022-10-31T12:10:40.073Z,12
2022-10-31T12:12:40.155Z,11
2022-10-31T12:14:40.257Z,12
2022-10-31T12:16:40.345Z,13
2022-10-31T12:18:40.439Z,15
2022-10-31T12:20:40.526Z,13
2022-10-31T12:22:40.683Z,13
2022-10-31T12:24:40.705Z,14
2022-10-31T12:26:40.769Z,10
2022-10-31T12:28:44.859Z,12
2022-10-31T12:30:40.941Z,13
2022-10-31T12:32:41.015Z,12
2022-10-31T12:34:46.168Z,16
2022-10-31T12:36:41.149Z,13
2022-10-31T12:39:11.285Z,15
2022-10-31T12:41:11.407Z,16
2022-10-31T12:43:11.562Z,15
2022-10-31T12:45:11.618Z,14
2022-10-31T12:47:11.719Z,14
2022-10-31T12:51:11.917Z,13
2022-10-31T12:53:12.060Z,12
2022-10-31T12:55:12.144Z,14
2022-10-31T12:57:12.251Z,14
2022-10-31T12:59:12.359Z,12
2022-10-31T13:01:12.730Z,14
2022-10-31T13:03:12.606Z,14
2022-10-31T13:05:12.650Z,13
2022-10-31T13:07:12.773Z,12
2022-10-31T13:09:12.879Z,13
2022-10-31T13:11:12.982Z,12
2022-10-31T13:13:13.297Z,14
2022-10-31T13:15:13.206Z,11
2022-10-31T13:17:13.297Z,12
2022-10-31T13:19:13.413Z,11
2022-10-31T13:21:13.512Z,14
2022-10-31T13:23:36.782Z,12
2022-10-31T13:25:13.711Z,14
2022-10-31T13:27:13.811Z,14
2022-10-31T13:31:14.016Z,13
2022-10-31T13:33:14.112Z,13
2022-10-31T13:35:14.230Z,11
2022-10-31T13:39:14.526Z,13
2022-10-31T13:41:14.530Z,12
2022-10-31T13:43:14.668Z,17
2022-10-31T13:45:14.720Z,11
2022-10-31T13:47:14.821Z,14
2022-10-31T13:49:14.887Z,12
2022-10-31T13:51:15.004Z,13
2022-10-31T13:53:15.093Z,13
2022-10-31T13:55:15.179Z,12
2022-10-31T13:57:15.285Z,13
2022-10-31T13:59:15.384Z,12
2022-10-31T14:01:15.622Z,12
2022-10-31T14:03:15.689Z,13
2022-10-31T14:05:15.663Z,13
2022-10-31T14:07:15.756Z,14
2022-10-31T14:09:15.841Z,12
2022-10-31T14:11:16.009Z,10
2022-10-31T14:13:16.034Z,12
2022-10-31T14:15:16.117Z,13
2022-10-31T14:17:16.199Z,12
2022-10-31T14:19:16.288Z,12
2022-10-31T14:21:16.368Z,11
2022-10-31T14:23:16.465Z,11
2022-10-31T14:27:16.618Z,11
2022-10-31T14:29:16.701Z,11
2022-10-31T14:31:16.768Z,12
2022-10-31T14:33:16.842Z,12
2022-10-31T14:35:21.196Z,11
2022-10-31T14:37:17.017Z,10
2022-10-31T14:39:47.186Z,11
2022-10-31T14:41:47.273Z,10
2022-10-31T14:43:47.388Z,10
2022-10-31T14:45:47.505Z,12
2022-10-31T14:47:47.620Z,12
2022-10-31T14:49:47.730Z,10
2022-10-31T14:51:47.823Z,12
2022-10-31T14:53:47.930Z,16
2022-10-31T14:55:48.032Z,14
2022-10-31T14:57:48.149Z,13
2022-10-31T14:59:48.293Z,17
2022-10-31T15:01:53.721Z,70
2022-10-31T15:04:10.159Z,33
2022-10-31T15:05:48.583Z,37
2022-10-31T15:07:48.694Z,19
2022-10-31T15:09:48.806Z,13
2022-10-31T15:11:48.935Z,16
2022-10-31T15:13:49.142Z,17
2022-10-31T15:15:52.354Z,17
2022-10-31T15:17:49.240Z,15
2022-10-31T15:19:49.339Z,17
2022-10-31T15:21:49.457Z,20
2022-10-31T15:23:49.528Z,18
2022-10-31T15:25:49.643Z,19
2022-10-31T15:27:49.746Z,16
2022-10-31T15:29:49.836Z,16
2022-10-31T15:31:49.934Z,14
2022-10-31T15:33:50.055Z,13
2022-10-31T15:35:50.144Z,14
2022-10-31T15:37:50.265Z,13
2022-10-31T15:39:50.349Z,13
2022-10-31T15:41:54.421Z,16
2022-10-31T15:43:50.550Z,13
2022-10-31T15:45:50.626Z,15
2022-10-31T15:47:50.736Z,13
2022-10-31T15:49:50.821Z,12
2022-10-31T15:51:54.415Z,15
2022-10-31T15:53:51.027Z,21
2022-10-31T15:55:51.114Z,35
2022-10-31T15:57:51.217Z,69
2022-10-31T15:59:51.308Z,112
2022-10-31T16:01:51.685Z,76
2022-10-31T16:03:51.500Z,15
2022-10-31T16:05:51.593Z,14
2022-10-31T16:07:51.689Z,20
2022-10-31T16:09:51.881Z,21
2022-10-31T16:11:51.848Z,13
2022-10-31T16:13:51.950Z,13
2022-10-31T16:16:03.643Z,14
2022-10-31T16:17:52.096Z,12
2022-10-31T16:19:52.185Z,15
2022-10-31T16:21:52.279Z,12
2022-10-31T16:23:55.420Z,14
2022-10-31T16:25:52.456Z,17
2022-10-31T16:27:54.474Z,20
2022-10-31T16:29:52.637Z,16
2022-10-31T16:31:52.729Z,12
2022-10-31T16:33:52.856Z,15
2022-10-31T16:35:56.128Z,15
2022-10-31T16:37:52.995Z,21
2022-10-31T16:39:53.075Z,18
2022-10-31T16:41:53.220Z,16
2022-10-31T16:43:53.254Z,18
2022-10-31T16:45:53.349Z,14
2022-10-31T16:47:53.430Z,15
2022-10-31T16:49:53.521Z,13
2022-10-31T16:51:53.608Z,13
2022-10-31T16:53:53.709Z,13
2022-10-31T16:56:23.841Z,14
2022-10-31T16:58:23.940Z,15
2022-10-31T17:00:24.124Z,15
2022-10-31T17:02:24.336Z,17
2022-10-31T17:04:24.429Z,12
2022-10-31T17:06:24.393Z,12
2022-10-31T17:08:24.517Z,14
2022-10-31T17:10:24.612Z,13
2022-10-31T17:12:24.738Z,17
2022-10-31T17:14:24.842Z,15
2022-10-31T17:16:24.921Z,17
2022-10-31T17:18:27.539Z,14
2022-10-31T17:20:25.136Z,14
2022-10-31T17:22:25.274Z,14
2022-10-31T17:24:25.337Z,16
2022-10-31T17:26:25.426Z,19
2022-10-31T17:28:25.543Z,27
2022-10-31T17:30:25.625Z,30
2022-10-31T17:32:25.738Z,29
2022-10-31T17:34:25.829Z,25
2022-10-31T17:36:25.934Z,24
2022-10-31T17:38:26.049Z,25
2022-10-31T17:40:26.149Z,68
2022-10-31T17:42:26.296Z,42
2022-10-31T17:44:26.360Z,32
2022-10-31T17:46:26.466Z,26
2022-10-31T17:48:26.570Z,23
2022-10-31T17:50:26.685Z,18
2022-10-31T17:52:26.782Z,15
2022-10-31T17:54:26.883Z,15
2022-10-31T17:56:26.987Z,17
2022-10-31T17:58:27.182Z,17
2022-10-31T18:00:27.215Z,18
2022-10-31T18:02:27.488Z,17
2022-10-31T18:04:27.423Z,28
2022-10-31T18:06:27.531Z,20
2022-10-31T18:08:27.617Z,27
2022-10-31T18:10:27.712Z,29
2022-10-31T18:12:27.822Z,32
2022-10-31T18:14:27.917Z,39
2022-10-31T18:16:28.062Z,39
2022-10-31T18:18:28.096Z,42
2022-10-31T18:20:28.185Z,40
2022-10-31T18:22:28.292Z,39
2022-10-31T18:24:28.383Z,41
2022-10-31T18:26:28.493Z,40
2022-10-31T18:28:28.577Z,41
2022-10-31T18:30:28.690Z,40
2022-10-31T18:32:28.774Z,43
2022-10-31T18:34:28.859Z,45
2022-10-31T18:36:28.955Z,39
2022-10-31T18:38:29.061Z,44
2022-10-31T18:42:29.264Z,39
2022-10-31T18:44:29.418Z,40
2022-10-31T18:46:29.468Z,78
2022-10-31T18:48:29.558Z,84
2022-10-31T18:50:29.667Z,69
2022-10-31T18:52:29.757Z,71
2022-10-31T18:54:29.817Z,62
2022-10-31T18:56:29.909Z,65
2022-10-31T18:58:30.003Z,63
2022-10-31T19:00:30.103Z,64
2022-10-31T19:02:30.244Z,63
2022-10-31T19:04:30.350Z,59
2022-10-31T19:06:30.400Z,60
2022-10-31T19:08:30.487Z,57
2022-10-31T19:10:30.577Z,54
2022-10-31T19:14:30.762Z,53
2022-10-31T19:16:30.853Z,50
2022-10-31T19:18:30.932Z,50
2022-10-31T19:20:31.037Z,51
2022-10-31T19:22:31.104Z,50
2022-10-31T19:24:31.191Z,45
2022-10-31T19:26:31.443Z,44
2022-10-31T19:28:31.386Z,41
2022-10-31T19:30:31.503Z,46
2022-10-31T19:32:31.584Z,53
2022-10-31T19:34:31.679Z,46
2022-10-31T19:36:31.768Z,48
2022-10-31T19:38:31.849Z,51
2022-10-31T19:40:31.927Z,50
2022-10-31T19:42:32.007Z,67
2022-10-31T19:44:32.087Z,61
2022-10-31T19:46:53.566Z,63
2022-10-31T19:48:32.248Z,55
2022-10-31T19:50:32.463Z,55
2022-10-31T19:52:32.403Z,49
2022-10-31T19:55:02.552Z,48
2022-10-31T19:57:02.651Z,50
2022-10-31T19:59:02.772Z,50
2022-10-31T20:01:02.874Z,48
2022-10-31T20:03:03.549Z,43
2022-10-31T20:05:03.110Z,40
2022-10-31T20:07:03.199Z,41
2022-10-31T20:09:03.339Z,37
2022-10-31T20:11:03.435Z,38
2022-10-31T20:13:03.745Z,34
2022-10-31T20:15:03.681Z,35
2022-10-31T20:17:03.770Z,37
2022-10-31T20:19:03.880Z,39
2022-10-31T20:21:04.987Z,43
2022-10-31T20:23:04.285Z,45
2022-10-31T20:25:04.193Z,45
2022-10-31T20:27:04.324Z,40
2022-10-31T20:29:04.433Z,42
2022-10-31T20:31:04.528Z,41
2022-10-31T20:33:04.939Z,38
2022-10-31T20:35:04.735Z,35
2022-10-31T20:39:04.971Z,30
2022-10-31T20:41:05.084Z,31
2022-10-31T20:43:05.244Z,29
2022-10-31T20:45:05.423Z,32
2022-10-31T20:47:05.424Z,32
2022-10-31T20:49:05.538Z,33
2022-10-31T20:51:05.694Z,34
2022-10-31T20:53:05.747Z,31
2022-10-31T20:55:05.869Z,33
2022-10-31T20:57:05.953Z,31
2022-10-31T20:59:06.069Z,36
2022-10-31T21:01:06.225Z,38
2022-10-31T21:03:06.409Z,40
2022-10-31T21:05:06.362Z,45
2022-10-31T21:07:06.483Z,47
2022-10-31T21:09:06.589Z,45
2022-10-31T21:11:06.693Z,44
2022-10-31T21:13:06.801Z,47
2022-10-31T21:15:06.889Z,41
2022-10-31T21:17:07.082Z,47
2022-10-31T21:19:07.118Z,44
2022-10-31T21:21:07.182Z,41
2022-10-31T21:23:07.344Z,39
2022-10-31T21:25:07.430Z,38
2022-10-31T21:27:10.063Z,34
2022-10-31T21:29:07.631Z,37
2022-10-31T21:31:07.722Z,35
2022-10-31T21:33:07.836Z,43
2022-10-31T21:35:07.947Z,48
2022-10-31T21:37:08.030Z,40
2022-10-31T21:39:08.147Z,45
2022-10-31T21:41:08.232Z,40
2022-10-31T21:43:08.402Z,40
2022-10-31T21:45:08.444Z,36
2022-10-31T21:47:08.518Z,32
2022-10-31T21:49:08.615Z,31
2022-10-31T21:51:08.698Z,29
2022-10-31T21:53:08.797Z,28
2022-10-31T21:55:08.883Z,30
2022-10-31T21:57:09.025Z,38
2022-10-31T21:59:09.097Z,33
2022-10-31T22:01:09.302Z,29
2022-10-31T22:03:09.319Z,29
2022-10-31T22:05:09.370Z,29
2022-10-31T22:07:09.478Z,28
2022-10-31T22:09:09.573Z,29
2022-10-31T22:11:09.661Z,30
2022-10-31T22:13:09.765Z,27
2022-10-31T22:15:09.899Z,27
2022-10-31T22:17:10.001Z,25
2022-10-31T22:19:10.142Z,28
2022-10-31T22:21:10.186Z,25
2022-10-31T22:23:10.343Z,28
2022-10-31T22:25:10.386Z,26
2022-10-31T22:27:10.629Z,28
2022-10-31T22:29:10.586Z,28
2022-10-31T22:33:10.794Z,25
2022-10-31T22:35:10.885Z,27
2022-10-31T22:37:11.825Z,26
2022-10-31T22:39:11.095Z,24
2022-10-31T22:43:11.281Z,21
2022-10-31T22:45:11.380Z,26
2022-10-31T22:47:11.474Z,23
2022-10-31T22:49:11.581Z,22
2022-10-31T22:51:11.665Z,21
2022-10-31T22:53:11.732Z,20
2022-10-31T22:55:11.819Z,23
2022-10-31T22:57:11.901Z,33
2022-10-31T22:59:12.013Z,54
2022-10-31T23:01:12.203Z,34
2022-10-31T23:03:12.237Z,35
2022-10-31T23:05:12.281Z,38
2022-10-31T23:07:14.447Z,38
2022-10-31T23:09:12.463Z,34
2022-10-31T23:11:12.553Z,33
2022-10-31T23:13:12.652Z,31
2022-10-31T23:15:12.741Z,31
2022-10-31T23:17:12.848Z,30
2022-10-31T23:19:12.943Z,31
2022-10-31T23:21:13.019Z,28
2022-10-31T23:23:13.114Z,29
2022-10-31T23:25:13.216Z,26
2022-10-31T23:29:13.389Z,27
2022-10-31T23:31:13.470Z,25
2022-10-31T23:33:13.575Z,25
2022-10-31T23:35:13.657Z,25
2022-10-31T23:37:13.944Z,23
2022-10-31T23:39:13.847Z,24
2022-10-31T23:41:13.928Z,22
2022-10-31T23:43:14.018Z,22
2022-10-31T23:45:14.077Z,23
2022-10-31T23:47:14.175Z,22
2022-10-31T23:49:14.245Z,21
2022-10-31T23:51:14.333Z,23
2022-10-31T23:53:14.417Z,19
2022-10-31T23:55:14.517Z,20
2022-10-31T23:57:44.673Z,21
2022-10-31T23:59:44.790Z,20
